sensor_id;sensor_type;location;lat;lon;timestamp;P1;durP1;ratioP1;P2;durP2;ratioP2
6336;SDS011;3201;49.962;11.618;2022-10-14T00:01:00;7.27;;;6.53;;
6336;SDS011;3201;49.962;11.618;2022-10-14T00:03:27;7.50;;;6.33;;
6336;SDS011;3201;49.962;11.618;2022-10-14T00:05:53;6.63;;;5.83;;
6336;SDS011;3201;49.962;11.618;2022-10-14T00:08:18;7.33;;;5.93;;
6336;SDS011;3201;49.962;11.618;2022-10-14T00:10:43;7.20;;;5.50;;
6336;SDS011;3201;49.962;11.618;2022-10-14T00:13:09;7.23;;;5.63;;
6336;SDS011;3201;49.962;11.618;2022-10-14T00:15:38;12.47;;;6.60;;
6336;SDS011;3201;49.962;11.618;2022-10-14T00:18:05;7.77;;;5.67;;
6336;SDS011;3201;49.962;11.618;2022-10-14T00:20:31;7.70;;;6.83;;
6336;SDS011;3201;49.962;11.618;2022-10-14T00:22:57;9.17;;;7.13;;
6336;SDS011;3201;49.962;11.618;2022-10-14T00:25:22;6.97;;;6.27;;
6336;SDS011;3201;49.962;11.618;2022-10-14T00:27:50;7.40;;;6.03;;
6336;SDS011;3201;49.962;11.618;2022-10-14T00:30:15;8.03;;;6.50;;
6336;SDS011;3201;49.962;11.618;2022-10-14T00:32:41;9.73;;;6.40;;
6336;SDS011;3201;49.962;11.618;2022-10-14T00:35:06;8.63;;;6.17;;
6336;SDS011;3201;49.962;11.618;2022-10-14T00:37:32;6.83;;;6.13;;
6336;SDS011;3201;49.962;11.618;2022-10-14T00:39:57;7.30;;;6.50;;
6336;SDS011;3201;49.962;11.618;2022-10-14T00:42:22;8.03;;;6.50;;
6336;SDS011;3201;49.962;11.618;2022-10-14T00:47:16;7.40;;;6.60;;
6336;SDS011;3201;49.962;11.618;2022-10-14T00:49:42;8.10;;;6.33;;
6336;SDS011;3201;49.962;11.618;2022-10-14T00:52:13;8.97;;;5.83;;
6336;SDS011;3201;49.962;11.618;2022-10-14T00:54:40;8.00;;;6.10;;
6336;SDS011;3201;49.962;11.618;2022-10-14T00:57:09;8.60;;;6.07;;
6336;SDS011;3201;49.962;11.618;2022-10-14T00:59:34;8.23;;;6.30;;
6336;SDS011;3201;49.962;11.618;2022-10-14T01:02:00;7.70;;;6.43;;
6336;SDS011;3201;49.962;11.618;2022-10-14T01:04:25;7.53;;;6.30;;
6336;SDS011;3201;49.962;11.618;2022-10-14T01:07:08;9.10;;;7.00;;
6336;SDS011;3201;49.962;11.618;2022-10-14T01:10:43;7.53;;;6.27;;
6336;SDS011;3201;49.962;11.618;2022-10-14T01:12:32;8.53;;;6.67;;
6336;SDS011;3201;49.962;11.618;2022-10-14T01:15:37;7.80;;;6.40;;
6336;SDS011;3201;49.962;11.618;2022-10-14T01:18:35;6.97;;;6.27;;
6336;SDS011;3201;49.962;11.618;2022-10-14T01:21:08;7.13;;;6.40;;
6336;SDS011;3201;49.962;11.618;2022-10-14T01:25:18;7.17;;;5.67;;
6336;SDS011;3201;49.962;11.618;2022-10-14T01:26:47;7.03;;;6.23;;
6336;SDS011;3201;49.962;11.618;2022-10-14T01:30:27;8.90;;;6.47;;
6336;SDS011;3201;49.962;11.618;2022-10-14T01:33:19;7.50;;;6.50;;
6336;SDS011;3201;49.962;11.618;2022-10-14T01:37:12;7.00;;;5.90;;
6336;SDS011;3201;49.962;11.618;2022-10-14T01:38:20;7.20;;;6.37;;
6336;SDS011;3201;49.962;11.618;2022-10-14T01:40:52;7.60;;;5.70;;
6336;SDS011;3201;49.962;11.618;2022-10-14T01:43:20;7.67;;;6.03;;
6336;SDS011;3201;49.962;11.618;2022-10-14T01:45:47;8.00;;;6.03;;
6336;SDS011;3201;49.962;11.618;2022-10-14T01:48:15;8.73;;;6.20;;
6336;SDS011;3201;49.962;11.618;2022-10-14T01:50:42;7.37;;;5.90;;
6336;SDS011;3201;49.962;11.618;2022-10-14T01:53:11;8.20;;;6.00;;
6336;SDS011;3201;49.962;11.618;2022-10-14T01:55:41;7.23;;;6.17;;
6336;SDS011;3201;49.962;11.618;2022-10-14T01:58:08;7.00;;;6.30;;
6336;SDS011;3201;49.962;11.618;2022-10-14T02:00:35;9.77;;;5.50;;
6336;SDS011;3201;49.962;11.618;2022-10-14T02:03:02;7.80;;;6.50;;
6336;SDS011;3201;49.962;11.618;2022-10-14T02:05:30;8.00;;;5.70;;
6336;SDS011;3201;49.962;11.618;2022-10-14T02:08:06;6.80;;;5.80;;
6336;SDS011;3201;49.962;11.618;2022-10-14T02:10:45;7.20;;;6.07;;
6336;SDS011;3201;49.962;11.618;2022-10-14T02:16:56;5.93;;;5.20;;
6336;SDS011;3201;49.962;11.618;2022-10-14T02:19:47;6.30;;;5.60;;
6336;SDS011;3201;49.962;11.618;2022-10-14T02:21:43;7.30;;;6.03;;
6336;SDS011;3201;49.962;11.618;2022-10-14T02:26:39;7.23;;;6.10;;
6336;SDS011;3201;49.962;11.618;2022-10-14T02:29:05;7.23;;;6.30;;
6336;SDS011;3201;49.962;11.618;2022-10-14T02:31:30;6.60;;;5.90;;
6336;SDS011;3201;49.962;11.618;2022-10-14T02:33:59;11.20;;;5.80;;
6336;SDS011;3201;49.962;11.618;2022-10-14T02:36:27;6.77;;;6.00;;
6336;SDS011;3201;49.962;11.618;2022-10-14T02:38:54;8.43;;;5.53;;
6336;SDS011;3201;49.962;11.618;2022-10-14T02:41:22;10.60;;;6.43;;
6336;SDS011;3201;49.962;11.618;2022-10-14T02:43:49;6.40;;;5.10;;
6336;SDS011;3201;49.962;11.618;2022-10-14T02:46:18;7.00;;;5.67;;
6336;SDS011;3201;49.962;11.618;2022-10-14T02:48:45;7.20;;;5.83;;
6336;SDS011;3201;49.962;11.618;2022-10-14T02:51:10;6.30;;;5.43;;
6336;SDS011;3201;49.962;11.618;2022-10-14T02:53:35;7.17;;;5.30;;
6336;SDS011;3201;49.962;11.618;2022-10-14T02:56:01;6.40;;;5.80;;
6336;SDS011;3201;49.962;11.618;2022-10-14T02:58:26;6.47;;;5.87;;
6336;SDS011;3201;49.962;11.618;2022-10-14T03:00:51;8.00;;;6.30;;
6336;SDS011;3201;49.962;11.618;2022-10-14T03:03:17;6.50;;;4.90;;
6336;SDS011;3201;49.962;11.618;2022-10-14T03:05:42;6.80;;;5.80;;
6336;SDS011;3201;49.962;11.618;2022-10-14T03:08:08;6.77;;;5.33;;
6336;SDS011;3201;49.962;11.618;2022-10-14T03:10:33;7.30;;;6.00;;
6336;SDS011;3201;49.962;11.618;2022-10-14T03:12:59;5.73;;;5.07;;
6336;SDS011;3201;49.962;11.618;2022-10-14T03:15:24;7.10;;;5.73;;
6336;SDS011;3201;49.962;11.618;2022-10-14T03:17:49;7.50;;;5.50;;
6336;SDS011;3201;49.962;11.618;2022-10-14T03:20:15;7.60;;;5.67;;
6336;SDS011;3201;49.962;11.618;2022-10-14T03:22:40;7.67;;;5.80;;
6336;SDS011;3201;49.962;11.618;2022-10-14T03:25:06;6.80;;;5.50;;
6336;SDS011;3201;49.962;11.618;2022-10-14T03:27:32;5.97;;;5.37;;
6336;SDS011;3201;49.962;11.618;2022-10-14T03:29:57;6.17;;;5.53;;
6336;SDS011;3201;49.962;11.618;2022-10-14T03:32:23;6.67;;;5.90;;
6336;SDS011;3201;49.962;11.618;2022-10-14T03:34:48;6.37;;;5.57;;
6336;SDS011;3201;49.962;11.618;2022-10-14T03:37:13;6.80;;;5.00;;
6336;SDS011;3201;49.962;11.618;2022-10-14T03:39:39;7.67;;;6.00;;
6336;SDS011;3201;49.962;11.618;2022-10-14T03:42:04;6.43;;;5.03;;
6336;SDS011;3201;49.962;11.618;2022-10-14T03:44:29;6.37;;;5.70;;
6336;SDS011;3201;49.962;11.618;2022-10-14T03:46:55;7.70;;;6.37;;
6336;SDS011;3201;49.962;11.618;2022-10-14T03:49:20;7.10;;;5.73;;
6336;SDS011;3201;49.962;11.618;2022-10-14T03:51:46;6.40;;;5.80;;
6336;SDS011;3201;49.962;11.618;2022-10-14T03:54:11;7.20;;;5.63;;
6336;SDS011;3201;49.962;11.618;2022-10-14T03:56:36;5.93;;;5.33;;
6336;SDS011;3201;49.962;11.618;2022-10-14T03:59:02;6.53;;;5.47;;
6336;SDS011;3201;49.962;11.618;2022-10-14T04:01:27;8.00;;;6.07;;
6336;SDS011;3201;49.962;11.618;2022-10-14T04:03:52;6.40;;;5.70;;
6336;SDS011;3201;49.962;11.618;2022-10-14T04:06:18;7.57;;;5.70;;
6336;SDS011;3201;49.962;11.618;2022-10-14T04:08:43;7.93;;;5.80;;
6336;SDS011;3201;49.962;11.618;2022-10-14T04:11:09;8.10;;;5.87;;
6336;SDS011;3201;49.962;11.618;2022-10-14T04:13:35;6.77;;;5.40;;
6336;SDS011;3201;49.962;11.618;2022-10-14T04:16:03;6.10;;;5.10;;
6336;SDS011;3201;49.962;11.618;2022-10-14T04:18:30;7.00;;;5.43;;
6336;SDS011;3201;49.962;11.618;2022-10-14T04:20:58;6.50;;;5.80;;
6336;SDS011;3201;49.962;11.618;2022-10-14T04:23:25;5.67;;;5.10;;
6336;SDS011;3201;49.962;11.618;2022-10-14T04:25:50;6.40;;;5.33;;
6336;SDS011;3201;49.962;11.618;2022-10-14T04:28:16;6.27;;;5.43;;
6336;SDS011;3201;49.962;11.618;2022-10-14T04:30:41;7.77;;;5.20;;
6336;SDS011;3201;49.962;11.618;2022-10-14T04:33:06;6.30;;;5.40;;
6336;SDS011;3201;49.962;11.618;2022-10-14T04:35:32;6.17;;;5.20;;
6336;SDS011;3201;49.962;11.618;2022-10-14T04:37:57;5.87;;;5.27;;
6336;SDS011;3201;49.962;11.618;2022-10-14T04:40:22;5.90;;;5.33;;
6336;SDS011;3201;49.962;11.618;2022-10-14T04:42:54;10.00;;;5.27;;
6336;SDS011;3201;49.962;11.618;2022-10-14T04:45:20;6.10;;;5.07;;
6336;SDS011;3201;49.962;11.618;2022-10-14T04:47:46;5.60;;;5.00;;
6336;SDS011;3201;49.962;11.618;2022-10-14T04:50:11;6.50;;;5.40;;
6336;SDS011;3201;49.962;11.618;2022-10-14T04:52:36;5.30;;;4.80;;
6336;SDS011;3201;49.962;11.618;2022-10-14T04:55:02;5.50;;;5.00;;
6336;SDS011;3201;49.962;11.618;2022-10-14T04:57:27;6.93;;;4.87;;
6336;SDS011;3201;49.962;11.618;2022-10-14T04:59:53;6.53;;;5.33;;
6336;SDS011;3201;49.962;11.618;2022-10-14T05:02:18;6.10;;;5.30;;
6336;SDS011;3201;49.962;11.618;2022-10-14T05:04:43;6.20;;;5.50;;
6336;SDS011;3201;49.962;11.618;2022-10-14T05:07:09;5.77;;;4.90;;
6336;SDS011;3201;49.962;11.618;2022-10-14T05:09:34;6.87;;;5.00;;
6336;SDS011;3201;49.962;11.618;2022-10-14T05:11:59;5.77;;;5.17;;
6336;SDS011;3201;49.962;11.618;2022-10-14T05:14:25;5.23;;;4.73;;
6336;SDS011;3201;49.962;11.618;2022-10-14T05:16:50;5.90;;;5.30;;
6336;SDS011;3201;49.962;11.618;2022-10-14T05:19:16;6.37;;;5.03;;
6336;SDS011;3201;49.962;11.618;2022-10-14T05:21:42;5.70;;;5.10;;
6336;SDS011;3201;49.962;11.618;2022-10-14T05:24:07;6.70;;;5.73;;
6336;SDS011;3201;49.962;11.618;2022-10-14T05:26:32;6.37;;;5.47;;
6336;SDS011;3201;49.962;11.618;2022-10-14T05:28:58;6.10;;;5.50;;
6336;SDS011;3201;49.962;11.618;2022-10-14T05:31:23;6.10;;;5.40;;
6336;SDS011;3201;49.962;11.618;2022-10-14T05:33:48;6.97;;;5.03;;
6336;SDS011;3201;49.962;11.618;2022-10-14T05:36:14;6.23;;;4.97;;
6336;SDS011;3201;49.962;11.618;2022-10-14T05:38:39;6.40;;;5.73;;
6336;SDS011;3201;49.962;11.618;2022-10-14T05:41:05;5.93;;;5.40;;
6336;SDS011;3201;49.962;11.618;2022-10-14T05:43:30;6.57;;;5.87;;
6336;SDS011;3201;49.962;11.618;2022-10-14T05:45:56;5.50;;;4.93;;
6336;SDS011;3201;49.962;11.618;2022-10-14T05:48:21;6.10;;;5.50;;
6336;SDS011;3201;49.962;11.618;2022-10-14T05:50:46;5.30;;;4.80;;
6336;SDS011;3201;49.962;11.618;2022-10-14T05:53:12;6.13;;;5.20;;
6336;SDS011;3201;49.962;11.618;2022-10-14T05:55:37;5.00;;;4.50;;
6336;SDS011;3201;49.962;11.618;2022-10-14T05:58:03;6.20;;;4.73;;
6336;SDS011;3201;49.962;11.618;2022-10-14T06:00:28;5.97;;;4.83;;
6336;SDS011;3201;49.962;11.618;2022-10-14T06:02:56;5.10;;;4.40;;
6336;SDS011;3201;49.962;11.618;2022-10-14T06:05:22;6.30;;;5.70;;
6336;SDS011;3201;49.962;11.618;2022-10-14T06:07:48;5.30;;;4.80;;
6336;SDS011;3201;49.962;11.618;2022-10-14T06:10:13;6.80;;;4.87;;
6336;SDS011;3201;49.962;11.618;2022-10-14T06:12:39;5.13;;;4.60;;
6336;SDS011;3201;49.962;11.618;2022-10-14T06:15:05;5.73;;;5.13;;
6336;SDS011;3201;49.962;11.618;2022-10-14T06:17:30;6.93;;;5.07;;
6336;SDS011;3201;49.962;11.618;2022-10-14T06:19:56;6.80;;;5.50;;
6336;SDS011;3201;49.962;11.618;2022-10-14T06:22:22;5.97;;;4.83;;
6336;SDS011;3201;49.962;11.618;2022-10-14T06:24:47;5.33;;;4.83;;
6336;SDS011;3201;49.962;11.618;2022-10-14T06:27:13;5.37;;;4.63;;
6336;SDS011;3201;49.962;11.618;2022-10-14T06:29:38;6.40;;;4.87;;
6336;SDS011;3201;49.962;11.618;2022-10-14T06:32:04;7.20;;;4.73;;
6336;SDS011;3201;49.962;11.618;2022-10-14T06:34:31;6.17;;;4.90;;
6336;SDS011;3201;49.962;11.618;2022-10-14T06:36:57;6.03;;;5.40;;
6336;SDS011;3201;49.962;11.618;2022-10-14T06:39:23;5.83;;;5.00;;
6336;SDS011;3201;49.962;11.618;2022-10-14T06:41:48;5.47;;;4.93;;
6336;SDS011;3201;49.962;11.618;2022-10-14T06:44:14;8.90;;;5.40;;
6336;SDS011;3201;49.962;11.618;2022-10-14T06:46:40;6.93;;;5.10;;
6336;SDS011;3201;49.962;11.618;2022-10-14T06:49:07;7.50;;;5.67;;
6336;SDS011;3201;49.962;11.618;2022-10-14T06:51:33;5.83;;;4.57;;
6336;SDS011;3201;49.962;11.618;2022-10-14T06:53:58;5.50;;;5.00;;
6336;SDS011;3201;49.962;11.618;2022-10-14T06:56:23;5.50;;;4.57;;
6336;SDS011;3201;49.962;11.618;2022-10-14T06:58:52;5.20;;;4.70;;
6336;SDS011;3201;49.962;11.618;2022-10-14T07:01:19;6.57;;;4.60;;
6336;SDS011;3201;49.962;11.618;2022-10-14T07:03:44;5.40;;;4.43;;
6336;SDS011;3201;49.962;11.618;2022-10-14T07:06:10;6.47;;;5.13;;
6336;SDS011;3201;49.962;11.618;2022-10-14T07:08:35;5.70;;;4.10;;
6336;SDS011;3201;49.962;11.618;2022-10-14T07:11:01;7.20;;;5.37;;
6336;SDS011;3201;49.962;11.618;2022-10-14T07:13:27;5.77;;;5.17;;
6336;SDS011;3201;49.962;11.618;2022-10-14T07:15:52;7.00;;;5.93;;
6336;SDS011;3201;49.962;11.618;2022-10-14T07:18:18;5.73;;;5.03;;
6336;SDS011;3201;49.962;11.618;2022-10-14T07:20:44;5.90;;;5.33;;
6336;SDS011;3201;49.962;11.618;2022-10-14T07:23:10;5.50;;;4.73;;
6336;SDS011;3201;49.962;11.618;2022-10-14T07:25:36;5.10;;;4.60;;
6336;SDS011;3201;49.962;11.618;2022-10-14T07:28:01;5.13;;;4.23;;
6336;SDS011;3201;49.962;11.618;2022-10-14T07:30:27;5.13;;;4.60;;
6336;SDS011;3201;49.962;11.618;2022-10-14T07:32:53;4.70;;;4.23;;
6336;SDS011;3201;49.962;11.618;2022-10-14T07:35:18;6.10;;;3.77;;
6336;SDS011;3201;49.962;11.618;2022-10-14T07:37:44;5.30;;;4.10;;
6336;SDS011;3201;49.962;11.618;2022-10-14T07:40:10;5.63;;;4.27;;
6336;SDS011;3201;49.962;11.618;2022-10-14T07:42:36;4.63;;;4.20;;
6336;SDS011;3201;49.962;11.618;2022-10-14T07:45:02;5.83;;;4.47;;
6336;SDS011;3201;49.962;11.618;2022-10-14T07:47:28;7.30;;;4.67;;
6336;SDS011;3201;49.962;11.618;2022-10-14T07:49:54;6.73;;;4.63;;
6336;SDS011;3201;49.962;11.618;2022-10-14T07:52:19;5.13;;;4.40;;
6336;SDS011;3201;49.962;11.618;2022-10-14T07:54:45;3.87;;;3.50;;
6336;SDS011;3201;49.962;11.618;2022-10-14T07:57:10;4.83;;;4.43;;
6336;SDS011;3201;49.962;11.618;2022-10-14T07:59:36;4.40;;;4.10;;
6336;SDS011;3201;49.962;11.618;2022-10-14T08:02:02;6.40;;;4.30;;
6336;SDS011;3201;49.962;11.618;2022-10-14T08:04:28;8.33;;;3.83;;
6336;SDS011;3201;49.962;11.618;2022-10-14T08:06:53;4.70;;;3.90;;
6336;SDS011;3201;49.962;11.618;2022-10-14T08:09:19;6.13;;;4.60;;
6336;SDS011;3201;49.962;11.618;2022-10-14T08:11:45;4.30;;;3.90;;
6336;SDS011;3201;49.962;11.618;2022-10-14T08:14:11;6.13;;;3.80;;
6336;SDS011;3201;49.962;11.618;2022-10-14T08:16:36;5.23;;;4.37;;
6336;SDS011;3201;49.962;11.618;2022-10-14T08:19:04;8.53;;;3.97;;
6336;SDS011;3201;49.962;11.618;2022-10-14T08:21:32;4.07;;;3.53;;
6336;SDS011;3201;49.962;11.618;2022-10-14T08:23:58;4.50;;;3.40;;
6336;SDS011;3201;49.962;11.618;2022-10-14T08:26:33;3.40;;;3.10;;
6336;SDS011;3201;49.962;11.618;2022-10-14T08:29:01;4.37;;;3.60;;
6336;SDS011;3201;49.962;11.618;2022-10-14T08:31:29;4.57;;;4.10;;
6336;SDS011;3201;49.962;11.618;2022-10-14T08:33:54;4.13;;;3.73;;
6336;SDS011;3201;49.962;11.618;2022-10-14T08:36:20;3.50;;;3.13;;
6336;SDS011;3201;49.962;11.618;2022-10-14T08:38:46;3.50;;;3.20;;
6336;SDS011;3201;49.962;11.618;2022-10-14T08:41:17;4.70;;;4.20;;
6336;SDS011;3201;49.962;11.618;2022-10-14T08:44:04;5.27;;;3.70;;
6336;SDS011;3201;49.962;11.618;2022-10-14T08:51:58;5.30;;;4.10;;
6336;SDS011;3201;49.962;11.618;2022-10-14T08:54:42;3.80;;;3.40;;
6336;SDS011;3201;49.962;11.618;2022-10-14T08:57:13;3.50;;;3.03;;
6336;SDS011;3201;49.962;11.618;2022-10-14T08:59:42;4.33;;;3.43;;
6336;SDS011;3201;49.962;11.618;2022-10-14T09:02:15;4.53;;;3.40;;
6336;SDS011;3201;49.962;11.618;2022-10-14T09:04:50;3.77;;;3.47;;
6336;SDS011;3201;49.962;11.618;2022-10-14T09:07:16;3.73;;;3.40;;
6336;SDS011;3201;49.962;11.618;2022-10-14T09:09:44;5.33;;;3.40;;
6336;SDS011;3201;49.962;11.618;2022-10-14T09:12:14;5.23;;;3.40;;
6336;SDS011;3201;49.962;11.618;2022-10-14T09:14:42;4.00;;;3.30;;
6336;SDS011;3201;49.962;11.618;2022-10-14T09:19:44;4.93;;;3.17;;
6336;SDS011;3201;49.962;11.618;2022-10-14T09:22:13;3.53;;;3.07;;
6336;SDS011;3201;49.962;11.618;2022-10-14T09:24:39;4.70;;;3.30;;
6336;SDS011;3201;49.962;11.618;2022-10-14T09:27:09;3.13;;;2.77;;
6336;SDS011;3201;49.962;11.618;2022-10-14T09:29:41;3.60;;;3.30;;
6336;SDS011;3201;49.962;11.618;2022-10-14T09:32:15;6.00;;;3.00;;
6336;SDS011;3201;49.962;11.618;2022-10-14T09:34:47;3.73;;;3.40;;
6336;SDS011;3201;49.962;11.618;2022-10-14T09:37:19;3.70;;;3.30;;
6336;SDS011;3201;49.962;11.618;2022-10-14T09:39:49;3.93;;;3.23;;
6336;SDS011;3201;49.962;11.618;2022-10-14T09:42:17;4.27;;;3.00;;
6336;SDS011;3201;49.962;11.618;2022-10-14T09:44:44;3.20;;;2.90;;
6336;SDS011;3201;49.962;11.618;2022-10-14T09:47:27;3.63;;;3.00;;
6336;SDS011;3201;49.962;11.618;2022-10-14T09:49:53;4.67;;;2.90;;
6336;SDS011;3201;49.962;11.618;2022-10-14T09:52:20;3.97;;;2.97;;
6336;SDS011;3201;49.962;11.618;2022-10-14T09:54:52;3.67;;;3.20;;
6336;SDS011;3201;49.962;11.618;2022-10-14T09:57:19;3.80;;;2.83;;
6336;SDS011;3201;49.962;11.618;2022-10-14T09:59:54;3.27;;;2.97;;
6336;SDS011;3201;49.962;11.618;2022-10-14T10:02:22;5.17;;;3.07;;
6336;SDS011;3201;49.962;11.618;2022-10-14T10:04:50;3.47;;;3.17;;
6336;SDS011;3201;49.962;11.618;2022-10-14T10:09:55;4.30;;;3.20;;
6336;SDS011;3201;49.962;11.618;2022-10-14T10:12:22;3.40;;;3.03;;
6336;SDS011;3201;49.962;11.618;2022-10-14T10:14:54;3.60;;;3.30;;
6336;SDS011;3201;49.962;11.618;2022-10-14T10:17:21;4.20;;;3.40;;
6336;SDS011;3201;49.962;11.618;2022-10-14T10:19:47;6.13;;;3.03;;
6336;SDS011;3201;49.962;11.618;2022-10-14T10:24:48;3.30;;;2.73;;
6336;SDS011;3201;49.962;11.618;2022-10-14T10:27:31;4.67;;;3.30;;
6336;SDS011;3201;49.962;11.618;2022-10-14T10:30:31;6.40;;;3.50;;
6336;SDS011;3201;49.962;11.618;2022-10-14T10:35:21;4.33;;;3.70;;
6336;SDS011;3201;49.962;11.618;2022-10-14T10:37:54;5.80;;;2.60;;
6336;SDS011;3201;49.962;11.618;2022-10-14T10:40:33;3.80;;;3.30;;
6336;SDS011;3201;49.962;11.618;2022-10-14T10:51:13;3.80;;;3.13;;
6336;SDS011;3201;49.962;11.618;2022-10-14T10:57:37;6.43;;;4.20;;
6336;SDS011;3201;49.962;11.618;2022-10-14T11:00:20;6.53;;;3.93;;
6336;SDS011;3201;49.962;11.618;2022-10-14T11:07:15;4.60;;;3.67;;
6336;SDS011;3201;49.962;11.618;2022-10-14T11:13:06;4.00;;;3.60;;
6336;SDS011;3201;49.962;11.618;2022-10-14T11:18:28;3.43;;;3.13;;
6336;SDS011;3201;49.962;11.618;2022-10-14T11:21:23;4.80;;;3.10;;
6336;SDS011;3201;49.962;11.618;2022-10-14T11:26:32;9.00;;;3.33;;
6336;SDS011;3201;49.962;11.618;2022-10-14T11:32:09;6.63;;;3.70;;
6336;SDS011;3201;49.962;11.618;2022-10-14T11:40:01;9.10;;;3.23;;
6336;SDS011;3201;49.962;11.618;2022-10-14T11:42:40;6.33;;;3.13;;
6336;SDS011;3201;49.962;11.618;2022-10-14T11:47:45;4.13;;;3.57;;
6336;SDS011;3201;49.962;11.618;2022-10-14T11:52:48;4.70;;;3.53;;
6336;SDS011;3201;49.962;11.618;2022-10-14T11:55:18;4.83;;;3.00;;
6336;SDS011;3201;49.962;11.618;2022-10-14T11:57:48;4.40;;;3.50;;
6336;SDS011;3201;49.962;11.618;2022-10-14T12:00:18;3.67;;;3.20;;
6336;SDS011;3201;49.962;11.618;2022-10-14T12:08:22;4.07;;;3.57;;
6336;SDS011;3201;49.962;11.618;2022-10-14T12:13:42;5.60;;;2.97;;
6336;SDS011;3201;49.962;11.618;2022-10-14T12:16:18;7.53;;;3.60;;
6336;SDS011;3201;49.962;11.618;2022-10-14T12:18:46;4.67;;;3.43;;
6336;SDS011;3201;49.962;11.618;2022-10-14T12:21:18;5.67;;;3.43;;
6336;SDS011;3201;49.962;11.618;2022-10-14T12:23:50;5.53;;;3.57;;
6336;SDS011;3201;49.962;11.618;2022-10-14T12:28:48;3.43;;;3.13;;
6336;SDS011;3201;49.962;11.618;2022-10-14T12:31:24;4.13;;;3.10;;
6336;SDS011;3201;49.962;11.618;2022-10-14T12:34:22;3.77;;;3.43;;
6336;SDS011;3201;49.962;11.618;2022-10-14T12:36:50;6.13;;;3.53;;
6336;SDS011;3201;49.962;11.618;2022-10-14T12:44:18;3.77;;;3.40;;
6336;SDS011;3201;49.962;11.618;2022-10-14T12:46:44;3.20;;;2.77;;
6336;SDS011;3201;49.962;11.618;2022-10-14T12:49:16;4.60;;;3.13;;
6336;SDS011;3201;49.962;11.618;2022-10-14T12:51:53;3.37;;;3.07;;
6336;SDS011;3201;49.962;11.618;2022-10-14T12:54:20;3.40;;;3.10;;
6336;SDS011;3201;49.962;11.618;2022-10-14T12:56:54;4.80;;;3.00;;
6336;SDS011;3201;49.962;11.618;2022-10-14T12:59:26;3.47;;;3.13;;
6336;SDS011;3201;49.962;11.618;2022-10-14T13:01:54;3.63;;;3.23;;
6336;SDS011;3201;49.962;11.618;2022-10-14T13:04:21;3.67;;;2.80;;
6336;SDS011;3201;49.962;11.618;2022-10-14T13:07:46;3.70;;;3.30;;
6336;SDS011;3201;49.962;11.618;2022-10-14T13:09:56;5.13;;;3.17;;
6336;SDS011;3201;49.962;11.618;2022-10-14T13:14:55;9.97;;;3.90;;
6336;SDS011;3201;49.962;11.618;2022-10-14T13:17:27;4.30;;;3.30;;
6336;SDS011;3201;49.962;11.618;2022-10-14T13:25:53;6.90;;;4.03;;
6336;SDS011;3201;49.962;11.618;2022-10-14T13:28:29;3.53;;;3.03;;
6336;SDS011;3201;49.962;11.618;2022-10-14T13:31:08;2.87;;;2.67;;
6336;SDS011;3201;49.962;11.618;2022-10-14T13:33:41;4.30;;;2.80;;
6336;SDS011;3201;49.962;11.618;2022-10-14T13:36:47;3.47;;;3.10;;
6336;SDS011;3201;49.962;11.618;2022-10-14T13:38:58;8.80;;;3.67;;
6336;SDS011;3201;49.962;11.618;2022-10-14T13:41:24;5.87;;;3.30;;
6336;SDS011;3201;49.962;11.618;2022-10-14T13:43:53;2.90;;;2.70;;
6336;SDS011;3201;49.962;11.618;2022-10-14T13:49:06;4.00;;;3.60;;
6336;SDS011;3201;49.962;11.618;2022-10-14T13:54:24;5.93;;;3.47;;
6336;SDS011;3201;49.962;11.618;2022-10-14T13:56:55;4.90;;;3.00;;
6336;SDS011;3201;49.962;11.618;2022-10-14T13:59:29;3.47;;;2.70;;
6336;SDS011;3201;49.962;11.618;2022-10-14T14:01:55;4.10;;;3.10;;
6336;SDS011;3201;49.962;11.618;2022-10-14T14:04:24;6.03;;;2.90;;
6336;SDS011;3201;49.962;11.618;2022-10-14T14:06:51;4.27;;;3.50;;
6336;SDS011;3201;49.962;11.618;2022-10-14T14:09:19;7.10;;;3.17;;
6336;SDS011;3201;49.962;11.618;2022-10-14T14:11:47;4.30;;;3.20;;
6336;SDS011;3201;49.962;11.618;2022-10-14T14:14:18;4.83;;;3.10;;
6336;SDS011;3201;49.962;11.618;2022-10-14T14:19:17;3.90;;;2.90;;
6336;SDS011;3201;49.962;11.618;2022-10-14T14:21:43;3.17;;;2.87;;
6336;SDS011;3201;49.962;11.618;2022-10-14T14:24:14;6.20;;;3.47;;
6336;SDS011;3201;49.962;11.618;2022-10-14T14:26:42;5.50;;;3.00;;
6336;SDS011;3201;49.962;11.618;2022-10-14T14:29:17;4.27;;;2.77;;
6336;SDS011;3201;49.962;11.618;2022-10-14T14:31:44;6.63;;;3.10;;
6336;SDS011;3201;49.962;11.618;2022-10-14T14:34:12;5.37;;;3.50;;
6336;SDS011;3201;49.962;11.618;2022-10-14T14:36:40;4.10;;;3.03;;
6336;SDS011;3201;49.962;11.618;2022-10-14T14:39:14;5.53;;;2.50;;
6336;SDS011;3201;49.962;11.618;2022-10-14T14:41:48;4.10;;;3.33;;
6336;SDS011;3201;49.962;11.618;2022-10-14T14:44:15;5.87;;;2.97;;
6336;SDS011;3201;49.962;11.618;2022-10-14T14:46:44;3.53;;;3.23;;
6336;SDS011;3201;49.962;11.618;2022-10-14T14:49:12;4.10;;;2.77;;
6336;SDS011;3201;49.962;11.618;2022-10-14T14:51:40;3.47;;;2.80;;
6336;SDS011;3201;49.962;11.618;2022-10-14T14:54:06;6.63;;;3.10;;
6336;SDS011;3201;49.962;11.618;2022-10-14T14:56:41;4.80;;;3.13;;
6336;SDS011;3201;49.962;11.618;2022-10-14T14:59:26;7.73;;;3.20;;
6336;SDS011;3201;49.962;11.618;2022-10-14T15:01:54;10.70;;;3.27;;
6336;SDS011;3201;49.962;11.618;2022-10-14T15:04:21;6.47;;;3.37;;
6336;SDS011;3201;49.962;11.618;2022-10-14T15:06:55;3.20;;;2.90;;
6336;SDS011;3201;49.962;11.618;2022-10-14T15:09:25;7.53;;;3.60;;
6336;SDS011;3201;49.962;11.618;2022-10-14T15:11:55;3.00;;;2.67;;
6336;SDS011;3201;49.962;11.618;2022-10-14T15:14:54;4.13;;;3.17;;
6336;SDS011;3201;49.962;11.618;2022-10-14T15:17:28;3.70;;;2.97;;
6336;SDS011;3201;49.962;11.618;2022-10-14T15:27:48;4.00;;;2.93;;
6336;SDS011;3201;49.962;11.618;2022-10-14T15:32:53;5.77;;;2.90;;
6336;SDS011;3201;49.962;11.618;2022-10-14T15:35:21;3.07;;;2.77;;
6336;SDS011;3201;49.962;11.618;2022-10-14T15:37:47;7.00;;;3.70;;
6336;SDS011;3201;49.962;11.618;2022-10-14T15:42:42;5.33;;;3.37;;
6336;SDS011;3201;49.962;11.618;2022-10-14T15:45:11;4.93;;;2.87;;
6336;SDS011;3201;49.962;11.618;2022-10-14T15:47:37;4.20;;;3.10;;
6336;SDS011;3201;49.962;11.618;2022-10-14T15:50:04;4.73;;;3.47;;
6336;SDS011;3201;49.962;11.618;2022-10-14T15:52:32;5.70;;;3.00;;
6336;SDS011;3201;49.962;11.618;2022-10-14T15:54:58;3.77;;;3.40;;
6336;SDS011;3201;49.962;11.618;2022-10-14T15:57:24;4.83;;;3.10;;
6336;SDS011;3201;49.962;11.618;2022-10-14T15:59:49;3.80;;;2.93;;
6336;SDS011;3201;49.962;11.618;2022-10-14T16:02:17;7.43;;;2.90;;
6336;SDS011;3201;49.962;11.618;2022-10-14T16:04:46;4.07;;;3.00;;
6336;SDS011;3201;49.962;11.618;2022-10-14T16:07:12;3.70;;;3.00;;
6336;SDS011;3201;49.962;11.618;2022-10-14T16:09:38;3.00;;;2.70;;
6336;SDS011;3201;49.962;11.618;2022-10-14T16:12:05;4.67;;;3.17;;
6336;SDS011;3201;49.962;11.618;2022-10-14T16:14:34;3.20;;;2.90;;
6336;SDS011;3201;49.962;11.618;2022-10-14T16:17:00;3.90;;;3.03;;
6336;SDS011;3201;49.962;11.618;2022-10-14T16:19:26;5.13;;;3.00;;
6336;SDS011;3201;49.962;11.618;2022-10-14T16:21:53;3.20;;;2.60;;
6336;SDS011;3201;49.962;11.618;2022-10-14T16:24:19;2.90;;;2.20;;
6336;SDS011;3201;49.962;11.618;2022-10-14T16:26:46;4.30;;;3.23;;
6336;SDS011;3201;49.962;11.618;2022-10-14T16:29:13;5.87;;;3.00;;
6336;SDS011;3201;49.962;11.618;2022-10-14T16:31:42;5.00;;;3.00;;
6336;SDS011;3201;49.962;11.618;2022-10-14T16:34:10;3.33;;;3.03;;
6336;SDS011;3201;49.962;11.618;2022-10-14T16:36:37;3.20;;;2.83;;
6336;SDS011;3201;49.962;11.618;2022-10-14T16:39:03;6.03;;;3.60;;
6336;SDS011;3201;49.962;11.618;2022-10-14T16:41:28;2.93;;;2.60;;
6336;SDS011;3201;49.962;11.618;2022-10-14T16:43:55;3.03;;;2.73;;
6336;SDS011;3201;49.962;11.618;2022-10-14T16:46:20;4.30;;;2.73;;
6336;SDS011;3201;49.962;11.618;2022-10-14T16:49:06;4.03;;;3.20;;
6336;SDS011;3201;49.962;11.618;2022-10-14T16:51:31;3.77;;;2.30;;
6336;SDS011;3201;49.962;11.618;2022-10-14T16:53:57;4.23;;;2.90;;
6336;SDS011;3201;49.962;11.618;2022-10-14T16:56:22;4.00;;;2.80;;
6336;SDS011;3201;49.962;11.618;2022-10-14T16:59:09;3.80;;;3.13;;